SWA382 KMSP-KDEN
Flight info
| Callsign | SWA382 |
|---|---|
| Flight time | N/A |
| Altitude | 30000 |
| Route | SCHEP1 RXANN TEYOU LLUKY PORDR AALLE4 |
| Aircraft | B738/M-SDE2E3FGHIRWXY/LB1 |
Departure
| Time | 2026-05-05 05:54 |
|---|---|
| Airport | Minneapolis–Saint Paul International Airport / Wold–Chamberlain Field (KMSP) |
Arrival
| Time | N/A |
|---|---|
| Airport | Denver International Airport (KDEN) |
| Time | Latitude | Longitude | Altitude | Speed | Heading |
|---|---|---|---|---|---|
| 2026-05-05 05:14 | 44.87497 | -93.22845 | 824 ft | 0 kts | 134° |
| 2026-05-05 05:36 | 44.87518 | -93.22875 | 823 ft | 6 kts | 134° |
| 2026-05-05 05:36 | 44.87544 | -93.22915 | 822 ft | 5 kts | 128° |
| 2026-05-05 05:36 | 44.87555 | -93.22940 | 823 ft | 2 kts | 96° |
| 2026-05-05 05:36 | 44.87554 | -93.22956 | 818 ft | 2 kts | 59° |
| 2026-05-05 05:37 | 44.87547 | -93.22969 | 822 ft | 2 kts | 46° |
| 2026-05-05 05:37 | 44.87543 | -93.22976 | 820 ft | 0 kts | 45° |
| 2026-05-05 05:42 | 44.87547 | -93.22969 | 821 ft | 3 kts | 45° |
| 2026-05-05 05:42 | 44.87571 | -93.22935 | 824 ft | 7 kts | 45° |
| 2026-05-05 05:42 | 44.87612 | -93.22878 | 823 ft | 10 kts | 45° |
| 2026-05-05 05:42 | 44.87665 | -93.22803 | 823 ft | 12 kts | 45° |
| 2026-05-05 05:43 | 44.87725 | -93.22720 | 823 ft | 12 kts | 44° |
| 2026-05-05 05:43 | 44.87782 | -93.22638 | 822 ft | 10 kts | 45° |
| 2026-05-05 05:43 | 44.87831 | -93.22570 | 824 ft | 10 kts | 45° |
| 2026-05-05 05:43 | 44.87878 | -93.22504 | 824 ft | 9 kts | 45° |
| 2026-05-05 05:44 | 44.87924 | -93.22439 | 822 ft | 9 kts | 45° |
| 2026-05-05 05:44 | 44.87968 | -93.22375 | 822 ft | 9 kts | 46° |
| 2026-05-05 05:44 | 44.88016 | -93.22304 | 825 ft | 11 kts | 46° |
| 2026-05-05 05:44 | 44.88068 | -93.22226 | 823 ft | 11 kts | 46° |
| 2026-05-05 05:45 | 44.88120 | -93.22148 | 825 ft | 11 kts | 47° |
| 2026-05-05 05:45 | 44.88170 | -93.22072 | 823 ft | 10 kts | 47° |
| 2026-05-05 05:45 | 44.88225 | -93.22013 | 824 ft | 10 kts | 31° |
| 2026-05-05 05:45 | 44.88284 | -93.21961 | 824 ft | 10 kts | 33° |
| 2026-05-05 05:46 | 44.88339 | -93.21905 | 821 ft | 10 kts | 40° |
| 2026-05-05 05:46 | 44.88386 | -93.21840 | 824 ft | 9 kts | 45° |
| 2026-05-05 05:46 | 44.88435 | -93.21771 | 824 ft | 11 kts | 45° |
| 2026-05-05 05:46 | 44.88500 | -93.21680 | 823 ft | 14 kts | 45° |
| 2026-05-05 05:47 | 44.88569 | -93.21583 | 821 ft | 14 kts | 45° |
| 2026-05-05 05:47 | 44.88635 | -93.21489 | 824 ft | 13 kts | 45° |
| 2026-05-05 05:47 | 44.88700 | -93.21398 | 825 ft | 14 kts | 45° |
| 2026-05-05 05:47 | 44.88770 | -93.21298 | 821 ft | 15 kts | 49° |
| 2026-05-05 05:48 | 44.88764 | -93.21167 | 824 ft | 14 kts | 121° |
| 2026-05-05 05:48 | 44.88711 | -93.21046 | 824 ft | 15 kts | 122° |
| 2026-05-05 05:48 | 44.88648 | -93.20899 | 821 ft | 20 kts | 120° |
| 2026-05-05 05:48 | 44.88572 | -93.20725 | 824 ft | 22 kts | 121° |
| 2026-05-05 05:49 | 44.88490 | -93.20535 | 822 ft | 23 kts | 121° |
| 2026-05-05 05:49 | 44.88408 | -93.20349 | 824 ft | 22 kts | 121° |
| 2026-05-05 05:49 | 44.88330 | -93.20167 | 824 ft | 21 kts | 121° |
| 2026-05-05 05:49 | 44.88254 | -93.19991 | 823 ft | 21 kts | 121° |
| 2026-05-05 05:50 | 44.88180 | -93.19821 | 824 ft | 20 kts | 121° |
| 2026-05-05 05:50 | 44.88120 | -93.19673 | 824 ft | 14 kts | 107° |
| 2026-05-05 05:50 | 44.88119 | -93.19638 | 824 ft | 0 kts | 79° |
| 2026-05-05 05:51 | 44.88120 | -93.19633 | 824 ft | 2 kts | 77° |
| 2026-05-05 05:51 | 44.88142 | -93.19599 | 824 ft | 7 kts | 34° |
| 2026-05-05 05:51 | 44.88197 | -93.19586 | 821 ft | 9 kts | 339° |
| 2026-05-05 05:51 | 44.88235 | -93.19649 | 820 ft | 6 kts | 302° |
| 2026-05-05 05:52 | 44.88236 | -93.19652 | 820 ft | 0 kts | 302° |
| 2026-05-05 05:53 | 44.88236 | -93.19653 | 824 ft | 1 kts | 302° |
| 2026-05-05 05:53 | 44.88309 | -93.19822 | 826 ft | 56 kts | 301° |
| 2026-05-05 05:54 | 44.88651 | -93.20609 | 822 ft | 130 kts | 301° |
| 2026-05-05 05:54 | 44.89215 | -93.21934 | 990 ft | 177 kts | 300° |
| 2026-05-05 05:54 | 44.89886 | -93.23480 | 1763 ft | 186 kts | 300° |
| 2026-05-05 05:54 | 44.90122 | -93.25087 | 3089 ft | 166 kts | 263° |
| 2026-05-05 05:55 | 44.89507 | -93.26550 | 3834 ft | 186 kts | 234° |
| 2026-05-05 05:55 | 44.88589 | -93.27933 | 4317 ft | 202 kts | 234° |
| 2026-05-05 05:55 | 44.87620 | -93.29497 | 4541 ft | 225 kts | 235° |
| 2026-05-05 05:55 | 44.86591 | -93.31225 | 5073 ft | 234 kts | 236° |
| 2026-05-05 05:56 | 44.85517 | -93.33087 | 5539 ft | 251 kts | 236° |
| 2026-05-05 05:56 | 44.84424 | -93.35023 | 6435 ft | 251 kts | 237° |
| 2026-05-05 05:56 | 44.83348 | -93.36961 | 7299 ft | 254 kts | 238° |
| 2026-05-05 05:56 | 44.82261 | -93.38950 | 8105 ft | 257 kts | 238° |
| 2026-05-05 05:57 | 44.81168 | -93.40966 | 8979 ft | 259 kts | 239° |
| 2026-05-05 05:57 | 44.80070 | -93.43003 | 9806 ft | 262 kts | 239° |
| 2026-05-05 05:57 | 44.78961 | -93.45072 | 10442 ft | 271 kts | 239° |
| 2026-05-05 05:57 | 44.77780 | -93.47292 | 10655 ft | 295 kts | 239° |
| 2026-05-05 05:58 | 44.76500 | -93.49695 | 10843 ft | 318 kts | 238° |
| 2026-05-05 05:58 | 44.75141 | -93.52237 | 11019 ft | 339 kts | 238° |
| 2026-05-05 05:58 | 44.73681 | -93.54963 | 11285 ft | 356 kts | 238° |
| 2026-05-05 05:58 | 44.72177 | -93.57762 | 11861 ft | 362 kts | 237° |
| 2026-05-05 05:59 | 44.70656 | -93.60593 | 12621 ft | 363 kts | 237° |
| 2026-05-05 05:59 | 44.69139 | -93.63444 | 13367 ft | 364 kts | 238° |
| 2026-05-05 05:59 | 44.67639 | -93.66328 | 14013 ft | 367 kts | 238° |
| 2026-05-05 05:59 | 44.66145 | -93.69219 | 14741 ft | 366 kts | 238° |
| 2026-05-05 06:00 | 44.64653 | -93.72102 | 15505 ft | 364 kts | 239° |
| 2026-05-05 06:00 | 44.63162 | -93.74975 | 16252 ft | 363 kts | 239° |
| 2026-05-05 06:00 | 44.61675 | -93.77837 | 16951 ft | 363 kts | 239° |
| 2026-05-05 06:00 | 44.60185 | -93.80697 | 17623 ft | 363 kts | 239° |
| 2026-05-05 06:01 | 44.58692 | -93.83556 | 18280 ft | 363 kts | 240° |
| 2026-05-05 06:01 | 44.57196 | -93.86420 | 18824 ft | 363 kts | 240° |
| 2026-05-05 06:01 | 44.55718 | -93.89244 | 19365 ft | 364 kts | 240° |
| 2026-05-05 06:01 | 44.54220 | -93.92106 | 19905 ft | 364 kts | 240° |
| 2026-05-05 06:02 | 44.52720 | -93.94971 | 20412 ft | 365 kts | 240° |
| 2026-05-05 06:02 | 44.51214 | -93.97844 | 20918 ft | 366 kts | 240° |
| 2026-05-05 06:02 | 44.49705 | -94.00719 | 21405 ft | 366 kts | 241° |
| 2026-05-05 06:02 | 44.48191 | -94.03603 | 21850 ft | 368 kts | 241° |
| 2026-05-05 06:03 | 44.46670 | -94.06498 | 22294 ft | 369 kts | 241° |
| 2026-05-05 06:03 | 44.45145 | -94.09398 | 22723 ft | 371 kts | 241° |
| 2026-05-05 06:03 | 44.43630 | -94.12273 | 23150 ft | 372 kts | 241° |
| 2026-05-05 06:03 | 44.42089 | -94.15194 | 23536 ft | 373 kts | 241° |
| 2026-05-05 06:04 | 44.40541 | -94.18123 | 23846 ft | 375 kts | 241° |
| 2026-05-05 06:04 | 44.38981 | -94.21071 | 24138 ft | 377 kts | 241° |
| 2026-05-05 06:04 | 44.37411 | -94.24035 | 24431 ft | 379 kts | 240° |
| 2026-05-05 06:04 | 44.35838 | -94.27002 | 24721 ft | 381 kts | 240° |
| 2026-05-05 06:05 | 44.34249 | -94.29996 | 25001 ft | 383 kts | 240° |
| 2026-05-05 06:05 | 44.32657 | -94.32994 | 25265 ft | 385 kts | 240° |
| 2026-05-05 06:05 | 44.31057 | -94.36004 | 25544 ft | 387 kts | 240° |
| 2026-05-05 06:05 | 44.29452 | -94.39018 | 25918 ft | 386 kts | 240° |
| 2026-05-05 06:06 | 44.27854 | -94.42017 | 26352 ft | 384 kts | 240° |
| 2026-05-05 06:06 | 44.26285 | -94.44957 | 26781 ft | 382 kts | 240° |
| 2026-05-05 06:06 | 44.24703 | -94.47920 | 27156 ft | 381 kts | 240° |
| 2026-05-05 06:06 | 44.23116 | -94.50891 | 27513 ft | 381 kts | 240° |
| 2026-05-05 06:07 | 44.21534 | -94.53847 | 27895 ft | 380 kts | 240° |
| 2026-05-05 06:07 | 44.19955 | -94.56796 | 28286 ft | 379 kts | 240° |
| 2026-05-05 06:07 | 44.18381 | -94.59734 | 28699 ft | 378 kts | 240° |
| 2026-05-05 06:07 | 44.16811 | -94.62661 | 29085 ft | 377 kts | 240° |
| 2026-05-05 06:08 | 44.15238 | -94.65594 | 29373 ft | 378 kts | 240° |
| 2026-05-05 06:08 | 44.13663 | -94.68529 | 29666 ft | 379 kts | 240° |
| 2026-05-05 06:08 | 44.12080 | -94.71474 | 29870 ft | 381 kts | 240° |
| 2026-05-05 06:08 | 44.10487 | -94.74436 | 29873 ft | 382 kts | 240° |
| 2026-05-05 06:09 | 44.07324 | -94.80300 | 29865 ft | 380 kts | 240° |
| 2026-05-05 06:09 | 44.04151 | -94.86175 | 29871 ft | 379 kts | 240° |
| 2026-05-05 06:10 | 44.01000 | -94.92001 | 29874 ft | 378 kts | 240° |
| 2026-05-05 06:10 | 43.97864 | -94.97871 | 29869 ft | 377 kts | 241° |
| 2026-05-05 06:11 | 43.94797 | -95.03787 | 29873 ft | 378 kts | 242° |
| 2026-05-05 06:11 | 43.91719 | -95.09728 | 29880 ft | 379 kts | 242° |
| 2026-05-05 06:12 | 43.88630 | -95.15663 | 29874 ft | 380 kts | 241° |
| 2026-05-05 06:12 | 43.85518 | -95.21617 | 29876 ft | 381 kts | 241° |
| 2026-05-05 06:13 | 43.82413 | -95.27544 | 29877 ft | 382 kts | 241° |
| 2026-05-05 06:13 | 43.79277 | -95.33518 | 29887 ft | 383 kts | 241° |
| 2026-05-05 06:14 | 43.76138 | -95.39484 | 29884 ft | 384 kts | 241° |
| 2026-05-05 06:14 | 43.72986 | -95.45462 | 29883 ft | 384 kts | 241° |
| 2026-05-05 06:15 | 43.69831 | -95.51436 | 29883 ft | 385 kts | 241° |
| 2026-05-05 06:15 | 43.66665 | -95.57416 | 29885 ft | 385 kts | 241° |
| 2026-05-05 06:16 | 43.63511 | -95.63363 | 29880 ft | 386 kts | 241° |